KBO YBDG-YBDG

Flight info

Callsign KBO
Flight time 0h 0m
Altitude 5000
Route YBDG
Aircraft CP10/L-SDE3FGHIRWY/LB1

Departure

Time 2026-04-24 05:15
Airport Bendigo Airport (YBDG)

Arrival

Time 2026-04-24 05:16
Airport Bendigo Airport (YBDG)
Time Latitude Longitude Altitude Speed Heading
2026-04-24 05:05 -36.73772 144.32718 698 ft 0 kts 95°
2026-04-24 05:09 -36.73772 144.32719 698 ft 0 kts 95°
2026-04-24 05:11 -36.73773 144.32735 693 ft 3 kts 95°
2026-04-24 05:11 -36.73764 144.32756 695 ft 5 kts
2026-04-24 05:11 -36.73737 144.32758 698 ft 6 kts 21°
2026-04-24 05:12 -36.73728 144.32786 698 ft 3 kts 86°
2026-04-24 05:12 -36.73728 144.32837 699 ft 6 kts 86°
2026-04-24 05:12 -36.73729 144.32882 699 ft 4 kts 92°
2026-04-24 05:12 -36.73732 144.32906 699 ft 4 kts 171°
2026-04-24 05:13 -36.73874 144.32900 699 ft 10 kts 179°
2026-04-24 05:13 -36.73881 144.32952 699 ft 7 kts 65°
2026-04-24 05:13 -36.73854 144.33005 692 ft 4 kts
2026-04-24 05:14 -36.73851 144.33005 695 ft 2 kts 357°
2026-04-24 05:14 -36.73714 144.33011 713 ft 30 kts
2026-04-24 05:14 -36.73447 144.33020 737 ft 48 kts
2026-04-24 05:14 -36.73105 144.33033 925 ft 50 kts
2026-04-24 05:15 -36.72890 144.33266 1154 ft 76 kts 110°
2026-04-24 05:15 -36.73517 144.33487 1056 ft 108 kts 177°
2026-04-24 05:15 -36.74253 144.33474 1209 ft 101 kts 181°
2026-04-24 05:15 -36.74927 144.33352 1337 ft 99 kts 194°
2026-04-24 05:16 -36.75395 144.33002 1327 ft 83 kts 312°
2026-04-24 05:16 -36.74768 144.32968 857 ft 88 kts
2026-04-24 05:16 -36.74330 144.32985 741 ft 49 kts
2026-04-24 05:16 -36.74063 144.32994 712 ft 39 kts
2026-04-24 05:17 -36.73710 144.32989 825 ft 55 kts 359°
2026-04-24 05:17 -36.73261 144.32976 912 ft 80 kts
2026-04-24 05:17 -36.72736 144.32967 1045 ft 73 kts 360°
2026-04-24 05:17 -36.72205 144.32986 1086 ft 74 kts 13°
2026-04-24 05:18 -36.72154 144.33480 1248 ft 85 kts 155°
2026-04-24 05:18 -36.72795 144.33573 1191 ft 95 kts 180°
2026-04-24 05:18 -36.73481 144.33567 1194 ft 97 kts 180°
2026-04-24 05:18 -36.74151 144.33608 1134 ft 95 kts 175°
2026-04-24 05:19 -36.74788 144.33689 1365 ft 81 kts 170°
2026-04-24 05:19 -36.75403 144.33748 1350 ft 87 kts 205°
2026-04-24 05:19 -36.75472 144.33153 1137 ft 73 kts 324°
2026-04-24 05:19 -36.75041 144.32975 894 ft 55 kts 356°
2026-04-24 05:20 -36.74682 144.32970 792 ft 49 kts
2026-04-24 05:20 -36.74366 144.32985 730 ft 43 kts
2026-04-24 05:20 -36.74124 144.32996 718 ft 29 kts
2026-04-24 05:20 -36.73881 144.32991 718 ft 46 kts 359°
2026-04-24 05:21 -36.73511 144.32986 852 ft 56 kts
2026-04-24 05:21 -36.73151 144.32924 1085 ft 54 kts 329°
2026-04-24 05:21 -36.72942 144.32492 1349 ft 59 kts 306°
2026-04-24 05:21 -36.72831 144.32031 1494 ft 63 kts 302°
2026-04-24 05:22 -36.72623 144.31469 1598 ft 75 kts 304°
2026-04-24 05:22 -36.72338 144.30871 1651 ft 73 kts 310°
2026-04-24 05:22 -36.71909 144.30402 1661 ft 84 kts 301°
2026-04-24 05:22 -36.71746 144.30049 2010 ft 18 kts 24°
2026-04-24 05:23 -36.71625 144.29468 1679 ft 85 kts 286°
2026-04-24 05:23 -36.71435 144.28732 1891 ft 84 kts 297°
2026-04-24 05:23 -36.71006 144.28396 2000 ft 81 kts 346°
2026-04-24 05:23 -36.70487 144.28210 2103 ft 83 kts 347°
2026-04-24 05:24 -36.69992 144.27940 2153 ft 90 kts 356°
2026-04-24 05:24 -36.70347 144.28272 2253 ft 112 kts 171°
2026-04-24 05:24 -36.70584 144.28284 2007 ft 8 kts
2026-04-24 05:24 -36.70324 144.27839 2143 ft 65 kts 306°
2026-04-24 05:25 -36.70139 144.27320 2138 ft 83 kts 304°
2026-04-24 05:25 -36.69763 144.26627 2128 ft 108 kts 314°
2026-04-24 05:25 -36.69403 144.26467 1397 ft 116 kts 172°
2026-04-24 05:25 -36.69973 144.26560 2064 ft 32 kts 339°
2026-04-24 05:26 -36.69616 144.26278 2055 ft 58 kts 334°
2026-04-24 05:26 -36.69244 144.25926 2229 ft 46 kts 325°
2026-04-24 05:26 -36.68903 144.25608 2103 ft 61 kts 159°
2026-04-24 05:26 -36.69517 144.25892 1822 ft 36 kts 94°
2026-04-24 05:27 -36.69732 144.25734 1493 ft 88 kts 309°
2026-04-24 05:27 -36.69579 144.26331 1445 ft 109 kts 80°
2026-04-24 05:27 -36.69721 144.27324 1484 ft 133 kts 121°
2026-04-24 05:27 -36.70211 144.27887 1970 ft 50 kts 312°
2026-04-24 05:28 -36.70854 144.28040 1591 ft 105 kts 169°
2026-04-24 05:28 -36.71671 144.28194 1556 ft 130 kts 168°
2026-04-24 05:28 -36.72426 144.28346 2123 ft 89 kts 168°
2026-04-24 05:28 -36.73170 144.28511 2039 ft 124 kts 173°
2026-04-24 05:29 -36.74016 144.28382 2327 ft 115 kts 196°
2026-04-24 05:29 -36.74260 144.29160 1982 ft 138 kts 83°
2026-04-24 05:29 -36.74458 144.30399 1506 ft 153 kts 106°
2026-04-24 05:29 -36.74689 144.31433 1343 ft 147 kts 121°
2026-04-24 05:30 -36.74821 144.32682 988 ft 152 kts 56°
2026-04-24 05:30 -36.74005 144.33181 864 ft 123 kts
2026-04-24 05:30 -36.73496 144.33338 984 ft 80 kts 76°
2026-04-24 05:30 -36.73772 144.34031 1022 ft 91 kts 130°
2026-04-24 05:31 -36.74221 144.34007 970 ft 98 kts 278°
2026-04-24 05:31 -36.74242 144.33204 1129 ft 89 kts 210°
2026-04-24 05:31 -36.74929 144.33207 1171 ft 108 kts 175°
2026-04-24 05:31 -36.74836 144.32997 957 ft 104 kts
2026-04-24 05:32 -36.74170 144.33047 714 ft 108 kts
2026-04-24 05:32 -36.73517 144.33063 1147 ft 68 kts
2026-04-24 05:32 -36.73292 144.33230 1034 ft 103 kts 157°
2026-04-24 05:32 -36.73947 144.33035 714 ft 66 kts 216°
2026-04-24 05:33 -36.74355 144.32710 873 ft 71 kts 226°
2026-04-24 05:33 -36.74188 144.32482 898 ft 81 kts 43°
2026-04-24 05:33 -36.73771 144.33122 989 ft 102 kts 51°
2026-04-24 05:34 -36.73768 144.33236 833 ft 101 kts 110°
2026-04-24 05:34 -36.74256 144.33957 963 ft 116 kts 147°
2026-04-24 05:34 -36.74819 144.33626 1000 ft 99 kts 265°
2026-04-24 05:34 -36.74376 144.33249 947 ft 86 kts
2026-04-24 05:35 -36.73776 144.33285 1014 ft 82 kts
2026-04-24 05:35 -36.73148 144.33204 1029 ft 92 kts 350°
2026-04-24 05:35 -36.72507 144.33159 1045 ft 91 kts
2026-04-24 05:35 -36.71989 144.33303 1133 ft 83 kts 49°
2026-04-24 05:36 -36.72485 144.33609 1215 ft 111 kts 186°
2026-04-24 05:36 -36.73363 144.33529 1094 ft 139 kts 189°
2026-04-24 05:36 -36.74229 144.33433 1178 ft 95 kts 172°
2026-04-24 05:36 -36.74811 144.33452 1232 ft 90 kts 143°
2026-04-24 05:37 -36.74815 144.34072 1028 ft 71 kts 88°
2026-04-24 05:37 -36.74458 144.34346 995 ft 85 kts 349°
2026-04-24 05:37 -36.74012 144.33757 1014 ft 113 kts 285°
2026-04-24 05:37 -36.73917 144.33044 1388 ft 63 kts 302°
2026-04-24 05:38 -36.73883 144.32378 1128 ft 88 kts 251°
2026-04-24 05:38 -36.74042 144.31626 995 ft 96 kts 226°
2026-04-24 05:38 -36.74675 144.31272 1000 ft 96 kts 192°
2026-04-24 05:38 -36.75282 144.31368 1054 ft 97 kts 133°
2026-04-24 05:39 -36.75468 144.32166 1097 ft 101 kts 73°
2026-04-24 05:39 -36.75197 144.32835 1133 ft 90 kts 19°
2026-04-24 05:39 -36.74512 144.32975 796 ft 102 kts
2026-04-24 05:39 -36.73861 144.32982 792 ft 90 kts
2026-04-24 05:40 -36.73687 144.33247 946 ft 97 kts 143°
2026-04-24 05:40 -36.74490 144.33398 982 ft 124 kts 175°
2026-04-24 05:40 -36.74443 144.32988 748 ft 97 kts
2026-04-24 05:40 -36.73867 144.33005 700 ft 68 kts
2026-04-24 05:41 -36.73470 144.33028 698 ft 46 kts
2026-04-24 05:41 -36.73305 144.32985 697 ft 17 kts 275°
2026-04-24 05:41 -36.73419 144.32921 695 ft 36 kts 176°
2026-04-24 05:41 -36.73613 144.32913 698 ft 24 kts 182°
2026-04-24 05:42 -36.73727 144.32860 699 ft 18 kts 270°
2026-04-24 05:42 -36.73775 144.32707 698 ft 7 kts 67°
2026-04-24 05:42 -36.73774 144.32709 698 ft 0 kts 158°